Lumbo, Mozambique
Current Conditions -  °F | °C
As of 11:00 AM on Thursday 18 Dec 2014 (Local Time) from FQNP Reporting Station
Broken Clouds Broken Clouds  
Wind Chill: 93°   Ceiling: 2000
Heat Index: 101°   Visibility: 6mi
Dew Point: 72°   Wind: 6mph
Humidity: 49%   Direction: 20°NNE
Pressure: 29.88"   Gusts: NA
Location:  15.02°S, 40.65°E
Report Text: FQNP 180900Z 02005KT 9999 BKN020 SCT/// 34/22 Q1012
Loading
Personal Weather Stations






























Interactive Weather Map New forecast layout! Learn more

10-Day Weather Forecast

Advertisements
Track Severe Weather on mobile